sensor_id;sensor_type;location;lat;lon;timestamp;P1;durP1;ratioP1;P2;durP2;ratioP2
69327;SDS011;56472;52.114;5.492;2023-07-24T00:00:03;1.40;;;1.40;;
69327;SDS011;56472;52.114;5.492;2023-07-24T00:02:31;1.35;;;1.35;;
69327;SDS011;56472;52.114;5.492;2023-07-24T00:04:58;1.48;;;1.38;;
69327;SDS011;56472;52.114;5.492;2023-07-24T00:07:25;1.30;;;1.30;;
69327;SDS011;56472;52.114;5.492;2023-07-24T00:09:51;1.20;;;1.20;;
69327;SDS011;56472;52.114;5.492;2023-07-24T00:12:19;1.25;;;1.25;;
69327;SDS011;56472;52.114;5.492;2023-07-24T00:14:45;1.92;;;1.33;;
69327;SDS011;56472;52.114;5.492;2023-07-24T00:17:12;1.33;;;1.33;;
69327;SDS011;56472;52.114;5.492;2023-07-24T00:19:39;1.30;;;1.30;;
69327;SDS011;56472;52.114;5.492;2023-07-24T00:22:06;1.70;;;1.10;;
69327;SDS011;56472;52.114;5.492;2023-07-24T00:24:33;1.30;;;1.30;;
69327;SDS011;56472;52.114;5.492;2023-07-24T00:27:00;1.30;;;1.27;;
69327;SDS011;56472;52.114;5.492;2023-07-24T00:29:26;1.35;;;1.25;;
69327;SDS011;56472;52.114;5.492;2023-07-24T00:31:53;1.50;;;1.40;;
69327;SDS011;56472;52.114;5.492;2023-07-24T00:34:20;2.00;;;1.52;;
69327;SDS011;56472;52.114;5.492;2023-07-24T00:36:47;1.40;;;1.30;;
69327;SDS011;56472;52.114;5.492;2023-07-24T00:39:14;1.60;;;1.50;;
69327;SDS011;56472;52.114;5.492;2023-07-24T00:41:41;1.20;;;1.20;;
69327;SDS011;56472;52.114;5.492;2023-07-24T00:44:08;1.60;;;1.55;;
69327;SDS011;56472;52.114;5.492;2023-07-24T00:46:35;1.38;;;1.27;;
69327;SDS011;56472;52.114;5.492;2023-07-24T00:49:04;1.33;;;1.33;;
69327;SDS011;56472;52.114;5.492;2023-07-24T00:51:31;1.58;;;1.48;;
69327;SDS011;56472;52.114;5.492;2023-07-24T00:54:03;1.60;;;1.50;;
69327;SDS011;56472;52.114;5.492;2023-07-24T00:56:32;1.52;;;1.48;;
69327;SDS011;56472;52.114;5.492;2023-07-24T00:59:00;1.10;;;1.10;;
69327;SDS011;56472;52.114;5.492;2023-07-24T01:01:27;1.15;;;1.15;;
69327;SDS011;56472;52.114;5.492;2023-07-24T01:03:54;1.30;;;1.20;;
69327;SDS011;56472;52.114;5.492;2023-07-24T01:06:24;1.70;;;1.60;;
69327;SDS011;56472;52.114;5.492;2023-07-24T01:08:51;1.40;;;1.30;;
69327;SDS011;56472;52.114;5.492;2023-07-24T01:11:19;2.42;;;1.30;;
69327;SDS011;56472;52.114;5.492;2023-07-24T01:13:57;1.42;;;1.33;;
69327;SDS011;56472;52.114;5.492;2023-07-24T01:16:33;1.60;;;1.50;;
69327;SDS011;56472;52.114;5.492;2023-07-24T01:19:04;1.38;;;1.38;;
69327;SDS011;56472;52.114;5.492;2023-07-24T01:21:49;1.30;;;1.30;;
69327;SDS011;56472;52.114;5.492;2023-07-24T01:24:33;1.30;;;1.20;;
69327;SDS011;56472;52.114;5.492;2023-07-24T01:27:10;1.40;;;1.40;;
69327;SDS011;56472;52.114;5.492;2023-07-24T01:29:36;1.45;;;1.30;;
69327;SDS011;56472;52.114;5.492;2023-07-24T01:32:03;1.20;;;1.20;;
69327;SDS011;56472;52.114;5.492;2023-07-24T01:34:30;1.65;;;1.38;;
69327;SDS011;56472;52.114;5.492;2023-07-24T01:36:57;1.35;;;1.35;;
69327;SDS011;56472;52.114;5.492;2023-07-24T01:39:25;1.38;;;1.38;;
69327;SDS011;56472;52.114;5.492;2023-07-24T01:41:52;1.42;;;1.33;;
69327;SDS011;56472;52.114;5.492;2023-07-24T01:44:18;1.30;;;1.30;;
69327;SDS011;56472;52.114;5.492;2023-07-24T01:46:45;2.40;;;1.50;;
69327;SDS011;56472;52.114;5.492;2023-07-24T01:49:12;1.27;;;1.27;;
69327;SDS011;56472;52.114;5.492;2023-07-24T01:51:42;1.38;;;1.38;;
69327;SDS011;56472;52.114;5.492;2023-07-24T01:54:09;1.45;;;1.35;;
69327;SDS011;56472;52.114;5.492;2023-07-24T01:56:36;1.13;;;1.13;;
69327;SDS011;56472;52.114;5.492;2023-07-24T01:59:06;1.67;;;1.58;;
69327;SDS011;56472;52.114;5.492;2023-07-24T02:01:32;1.27;;;1.27;;
69327;SDS011;56472;52.114;5.492;2023-07-24T02:03:59;1.20;;;1.20;;
69327;SDS011;56472;52.114;5.492;2023-07-24T02:06:26;1.30;;;1.30;;
69327;SDS011;56472;52.114;5.492;2023-07-24T02:08:54;1.40;;;1.30;;
69327;SDS011;56472;52.114;5.492;2023-07-24T02:11:20;1.40;;;1.40;;
69327;SDS011;56472;52.114;5.492;2023-07-24T02:13:47;1.52;;;1.45;;
69327;SDS011;56472;52.114;5.492;2023-07-24T02:16:14;1.05;;;1.05;;
69327;SDS011;56472;52.114;5.492;2023-07-24T02:18:41;1.63;;;1.52;;
69327;SDS011;56472;52.114;5.492;2023-07-24T02:21:09;1.25;;;1.25;;
69327;SDS011;56472;52.114;5.492;2023-07-24T02:23:36;1.40;;;1.30;;
69327;SDS011;56472;52.114;5.492;2023-07-24T02:26:03;1.10;;;1.10;;
69327;SDS011;56472;52.114;5.492;2023-07-24T02:28:33;1.27;;;1.27;;
69327;SDS011;56472;52.114;5.492;2023-07-24T02:31:00;1.20;;;1.20;;
69327;SDS011;56472;52.114;5.492;2023-07-24T02:33:27;1.40;;;1.30;;
69327;SDS011;56472;52.114;5.492;2023-07-24T02:35:54;1.10;;;1.10;;
69327;SDS011;56472;52.114;5.492;2023-07-24T02:38:21;1.20;;;1.20;;
69327;SDS011;56472;52.114;5.492;2023-07-24T02:40:48;3.13;;;1.20;;
69327;SDS011;56472;52.114;5.492;2023-07-24T02:43:15;1.30;;;1.30;;
69327;SDS011;56472;52.114;5.492;2023-07-24T02:45:42;1.30;;;1.30;;
69327;SDS011;56472;52.114;5.492;2023-07-24T02:48:09;1.27;;;1.17;;
69327;SDS011;56472;52.114;5.492;2023-07-24T02:50:35;1.15;;;1.10;;
69327;SDS011;56472;52.114;5.492;2023-07-24T02:53:02;1.38;;;1.38;;
69327;SDS011;56472;52.114;5.492;2023-07-24T02:55:30;1.10;;;1.10;;
69327;SDS011;56472;52.114;5.492;2023-07-24T02:57:57;1.33;;;1.30;;
69327;SDS011;56472;52.114;5.492;2023-07-24T03:00:24;1.02;;;1.02;;
69327;SDS011;56472;52.114;5.492;2023-07-24T03:02:52;1.10;;;1.10;;
69327;SDS011;56472;52.114;5.492;2023-07-24T03:05:19;1.73;;;1.27;;
69327;SDS011;56472;52.114;5.492;2023-07-24T03:07:46;1.13;;;1.13;;
69327;SDS011;56472;52.114;5.492;2023-07-24T03:10:13;1.00;;;1.00;;
69327;SDS011;56472;52.114;5.492;2023-07-24T03:12:39;1.00;;;1.00;;
69327;SDS011;56472;52.114;5.492;2023-07-24T03:15:07;1.20;;;1.20;;
69327;SDS011;56472;52.114;5.492;2023-07-24T03:17:34;1.23;;;1.23;;
69327;SDS011;56472;52.114;5.492;2023-07-24T03:20:07;1.08;;;1.08;;
69327;SDS011;56472;52.114;5.492;2023-07-24T03:22:44;1.23;;;1.13;;
69327;SDS011;56472;52.114;5.492;2023-07-24T03:25:12;1.00;;;1.00;;
69327;SDS011;56472;52.114;5.492;2023-07-24T03:27:39;1.00;;;1.00;;
69327;SDS011;56472;52.114;5.492;2023-07-24T03:30:06;1.52;;;1.10;;
69327;SDS011;56472;52.114;5.492;2023-07-24T03:32:34;1.10;;;1.10;;
69327;SDS011;56472;52.114;5.492;2023-07-24T03:35:03;0.82;;;0.82;;
69327;SDS011;56472;52.114;5.492;2023-07-24T03:37:31;1.00;;;1.00;;
69327;SDS011;56472;52.114;5.492;2023-07-24T03:39:58;1.20;;;1.10;;
69327;SDS011;56472;52.114;5.492;2023-07-24T03:42:27;1.23;;;0.90;;
69327;SDS011;56472;52.114;5.492;2023-07-24T03:44:56;1.08;;;1.08;;
69327;SDS011;56472;52.114;5.492;2023-07-24T03:47:23;1.08;;;1.08;;
69327;SDS011;56472;52.114;5.492;2023-07-24T03:49:50;1.02;;;1.02;;
69327;SDS011;56472;52.114;5.492;2023-07-24T03:52:17;0.95;;;0.95;;
69327;SDS011;56472;52.114;5.492;2023-07-24T03:54:44;1.02;;;1.02;;
69327;SDS011;56472;52.114;5.492;2023-07-24T03:57:11;0.90;;;0.90;;
69327;SDS011;56472;52.114;5.492;2023-07-24T03:59:38;0.95;;;0.95;;
69327;SDS011;56472;52.114;5.492;2023-07-24T04:02:05;1.00;;;1.00;;
69327;SDS011;56472;52.114;5.492;2023-07-24T04:04:36;1.10;;;1.10;;
69327;SDS011;56472;52.114;5.492;2023-07-24T04:07:03;0.90;;;0.90;;
69327;SDS011;56472;52.114;5.492;2023-07-24T04:09:31;1.30;;;1.30;;
69327;SDS011;56472;52.114;5.492;2023-07-24T04:11:58;1.00;;;1.00;;
69327;SDS011;56472;52.114;5.492;2023-07-24T04:14:24;0.90;;;0.90;;
69327;SDS011;56472;52.114;5.492;2023-07-24T04:16:51;1.10;;;1.10;;
69327;SDS011;56472;52.114;5.492;2023-07-24T04:19:18;1.00;;;1.00;;
69327;SDS011;56472;52.114;5.492;2023-07-24T04:21:45;1.00;;;1.00;;
69327;SDS011;56472;52.114;5.492;2023-07-24T04:24:11;1.00;;;1.00;;
69327;SDS011;56472;52.114;5.492;2023-07-24T04:26:38;1.10;;;1.10;;
69327;SDS011;56472;52.114;5.492;2023-07-24T04:29:06;1.20;;;1.20;;
69327;SDS011;56472;52.114;5.492;2023-07-24T04:31:33;1.00;;;1.00;;
69327;SDS011;56472;52.114;5.492;2023-07-24T04:34:00;0.90;;;0.90;;
69327;SDS011;56472;52.114;5.492;2023-07-24T04:36:27;0.98;;;0.98;;
69327;SDS011;56472;52.114;5.492;2023-07-24T04:38:54;1.05;;;1.05;;
69327;SDS011;56472;52.114;5.492;2023-07-24T04:41:21;0.98;;;0.98;;
69327;SDS011;56472;52.114;5.492;2023-07-24T04:43:47;1.55;;;1.08;;
69327;SDS011;56472;52.114;5.492;2023-07-24T04:46:14;1.25;;;1.25;;
69327;SDS011;56472;52.114;5.492;2023-07-24T04:48:41;1.05;;;1.05;;
69327;SDS011;56472;52.114;5.492;2023-07-24T04:51:08;1.30;;;1.20;;
69327;SDS011;56472;52.114;5.492;2023-07-24T04:53:35;1.00;;;1.00;;
69327;SDS011;56472;52.114;5.492;2023-07-24T04:56:01;0.95;;;0.95;;
69327;SDS011;56472;52.114;5.492;2023-07-24T04:58:28;1.10;;;1.00;;
69327;SDS011;56472;52.114;5.492;2023-07-24T05:00:55;1.20;;;1.20;;
69327;SDS011;56472;52.114;5.492;2023-07-24T05:03:22;1.10;;;1.00;;
69327;SDS011;56472;52.114;5.492;2023-07-24T05:05:53;1.20;;;1.17;;
69327;SDS011;56472;52.114;5.492;2023-07-24T05:08:22;1.20;;;1.20;;
69327;SDS011;56472;52.114;5.492;2023-07-24T05:10:55;1.27;;;1.10;;
69327;SDS011;56472;52.114;5.492;2023-07-24T05:13:22;1.02;;;1.02;;
69327;SDS011;56472;52.114;5.492;2023-07-24T05:15:49;1.10;;;1.10;;
69327;SDS011;56472;52.114;5.492;2023-07-24T05:18:16;1.10;;;1.10;;
69327;SDS011;56472;52.114;5.492;2023-07-24T05:20:46;0.90;;;0.90;;
69327;SDS011;56472;52.114;5.492;2023-07-24T05:23:14;1.05;;;1.05;;
69327;SDS011;56472;52.114;5.492;2023-07-24T05:25:41;1.35;;;1.30;;
69327;SDS011;56472;52.114;5.492;2023-07-24T05:28:09;1.02;;;1.02;;
69327;SDS011;56472;52.114;5.492;2023-07-24T05:30:36;1.33;;;1.33;;
69327;SDS011;56472;52.114;5.492;2023-07-24T05:33:03;1.10;;;1.10;;
69327;SDS011;56472;52.114;5.492;2023-07-24T05:35:30;1.20;;;1.20;;
69327;SDS011;56472;52.114;5.492;2023-07-24T05:37:56;1.40;;;1.33;;
69327;SDS011;56472;52.114;5.492;2023-07-24T05:40:23;1.38;;;1.30;;
69327;SDS011;56472;52.114;5.492;2023-07-24T05:42:50;1.40;;;1.35;;
69327;SDS011;56472;52.114;5.492;2023-07-24T05:45:17;1.38;;;1.30;;
69327;SDS011;56472;52.114;5.492;2023-07-24T05:47:44;1.30;;;1.30;;
69327;SDS011;56472;52.114;5.492;2023-07-24T05:50:10;1.30;;;1.30;;
69327;SDS011;56472;52.114;5.492;2023-07-24T05:52:40;1.10;;;1.10;;
69327;SDS011;56472;52.114;5.492;2023-07-24T05:55:07;1.50;;;1.40;;
69327;SDS011;56472;52.114;5.492;2023-07-24T05:57:34;1.42;;;1.33;;
69327;SDS011;56472;52.114;5.492;2023-07-24T06:00:02;1.50;;;1.40;;
69327;SDS011;56472;52.114;5.492;2023-07-24T06:02:36;1.45;;;1.40;;
69327;SDS011;56472;52.114;5.492;2023-07-24T06:05:03;2.22;;;1.35;;
69327;SDS011;56472;52.114;5.492;2023-07-24T06:07:30;1.70;;;1.60;;
69327;SDS011;56472;52.114;5.492;2023-07-24T06:09:57;1.48;;;1.48;;
69327;SDS011;56472;52.114;5.492;2023-07-24T06:12:24;1.52;;;1.42;;
69327;SDS011;56472;52.114;5.492;2023-07-24T06:14:50;1.40;;;1.40;;
69327;SDS011;56472;52.114;5.492;2023-07-24T06:17:17;1.42;;;1.42;;
69327;SDS011;56472;52.114;5.492;2023-07-24T06:19:44;1.75;;;1.52;;
69327;SDS011;56472;52.114;5.492;2023-07-24T06:22:11;1.38;;;1.38;;
69327;SDS011;56472;52.114;5.492;2023-07-24T06:24:38;1.23;;;1.23;;
69327;SDS011;56472;52.114;5.492;2023-07-24T06:27:05;1.17;;;1.17;;
69327;SDS011;56472;52.114;5.492;2023-07-24T06:29:33;1.42;;;1.42;;
69327;SDS011;56472;52.114;5.492;2023-07-24T06:32:00;1.63;;;1.52;;
69327;SDS011;56472;52.114;5.492;2023-07-24T06:34:26;1.70;;;1.60;;
69327;SDS011;56472;52.114;5.492;2023-07-24T06:36:53;1.40;;;1.33;;
69327;SDS011;56472;52.114;5.492;2023-07-24T06:39:26;1.63;;;1.52;;
69327;SDS011;56472;52.114;5.492;2023-07-24T06:41:54;1.38;;;1.27;;
69327;SDS011;56472;52.114;5.492;2023-07-24T06:44:21;1.65;;;1.65;;
69327;SDS011;56472;52.114;5.492;2023-07-24T06:46:48;1.50;;;1.50;;
69327;SDS011;56472;52.114;5.492;2023-07-24T06:49:15;1.90;;;1.63;;
69327;SDS011;56472;52.114;5.492;2023-07-24T06:51:41;1.40;;;1.30;;
69327;SDS011;56472;52.114;5.492;2023-07-24T06:54:08;1.77;;;1.67;;
69327;SDS011;56472;52.114;5.492;2023-07-24T06:56:35;1.70;;;1.60;;
69327;SDS011;56472;52.114;5.492;2023-07-24T06:59:02;1.80;;;1.77;;
69327;SDS011;56472;52.114;5.492;2023-07-24T07:01:29;1.90;;;1.80;;
69327;SDS011;56472;52.114;5.492;2023-07-24T07:03:55;1.83;;;1.73;;
69327;SDS011;56472;52.114;5.492;2023-07-24T07:06:22;1.50;;;1.50;;
69327;SDS011;56472;52.114;5.492;2023-07-24T07:08:52;1.83;;;1.73;;
69327;SDS011;56472;52.114;5.492;2023-07-24T07:11:19;1.85;;;1.75;;
69327;SDS011;56472;52.114;5.492;2023-07-24T07:13:45;1.65;;;1.60;;
69327;SDS011;56472;52.114;5.492;2023-07-24T07:16:12;1.92;;;1.83;;
69327;SDS011;56472;52.114;5.492;2023-07-24T07:18:39;1.95;;;1.85;;
69327;SDS011;56472;52.114;5.492;2023-07-24T07:21:06;1.85;;;1.75;;
69327;SDS011;56472;52.114;5.492;2023-07-24T07:23:32;2.22;;;2.00;;
69327;SDS011;56472;52.114;5.492;2023-07-24T07:25:59;2.05;;;1.85;;
69327;SDS011;56472;52.114;5.492;2023-07-24T07:28:26;2.00;;;1.90;;
69327;SDS011;56472;52.114;5.492;2023-07-24T07:30:53;2.25;;;2.15;;
69327;SDS011;56472;52.114;5.492;2023-07-24T07:33:20;1.92;;;1.83;;
69327;SDS011;56472;52.114;5.492;2023-07-24T07:35:50;2.45;;;2.00;;
69327;SDS011;56472;52.114;5.492;2023-07-24T07:38:17;1.92;;;1.83;;
69327;SDS011;56472;52.114;5.492;2023-07-24T07:40:44;1.90;;;1.80;;
69327;SDS011;56472;52.114;5.492;2023-07-24T07:43:11;2.20;;;2.10;;
69327;SDS011;56472;52.114;5.492;2023-07-24T07:45:38;2.08;;;1.98;;
69327;SDS011;56472;52.114;5.492;2023-07-24T07:48:05;2.35;;;2.15;;
69327;SDS011;56472;52.114;5.492;2023-07-24T07:50:32;2.05;;;1.95;;
69327;SDS011;56472;52.114;5.492;2023-07-24T07:52:59;3.20;;;2.30;;
69327;SDS011;56472;52.114;5.492;2023-07-24T07:55:25;2.05;;;1.95;;
69327;SDS011;56472;52.114;5.492;2023-07-24T07:57:52;2.28;;;2.10;;
69327;SDS011;56472;52.114;5.492;2023-07-24T08:00:19;2.15;;;2.05;;
69327;SDS011;56472;52.114;5.492;2023-07-24T08:02:46;2.22;;;2.03;;
69327;SDS011;56472;52.114;5.492;2023-07-24T08:05:13;4.07;;;2.33;;
69327;SDS011;56472;52.114;5.492;2023-07-24T08:07:46;2.15;;;1.95;;
69327;SDS011;56472;52.114;5.492;2023-07-24T08:10:13;2.08;;;1.98;;
69327;SDS011;56472;52.114;5.492;2023-07-24T08:12:43;3.17;;;1.80;;
69327;SDS011;56472;52.114;5.492;2023-07-24T08:15:10;3.05;;;2.30;;
69327;SDS011;56472;52.114;5.492;2023-07-24T08:17:37;2.92;;;2.22;;
69327;SDS011;56472;52.114;5.492;2023-07-24T08:20:04;3.60;;;2.30;;
69327;SDS011;56472;52.114;5.492;2023-07-24T08:22:31;2.83;;;2.10;;
69327;SDS011;56472;52.114;5.492;2023-07-24T08:24:58;2.47;;;2.30;;
69327;SDS011;56472;52.114;5.492;2023-07-24T08:27:25;3.55;;;2.17;;
69327;SDS011;56472;52.114;5.492;2023-07-24T08:29:52;2.13;;;1.92;;
69327;SDS011;56472;52.114;5.492;2023-07-24T08:32:19;2.50;;;2.30;;
69327;SDS011;56472;52.114;5.492;2023-07-24T08:34:46;4.90;;;2.00;;
69327;SDS011;56472;52.114;5.492;2023-07-24T08:37:13;4.82;;;1.85;;
69327;SDS011;56472;52.114;5.492;2023-07-24T08:39:40;2.00;;;1.90;;
69327;SDS011;56472;52.114;5.492;2023-07-24T08:42:11;9.40;;;2.20;;
69327;SDS011;56472;52.114;5.492;2023-07-24T08:44:39;3.17;;;1.90;;
69327;SDS011;56472;52.114;5.492;2023-07-24T08:47:06;2.13;;;2.03;;
69327;SDS011;56472;52.114;5.492;2023-07-24T08:49:38;2.50;;;2.30;;
69327;SDS011;56472;52.114;5.492;2023-07-24T08:52:08;3.67;;;2.00;;
69327;SDS011;56472;52.114;5.492;2023-07-24T08:54:48;2.20;;;2.10;;
69327;SDS011;56472;52.114;5.492;2023-07-24T08:57:16;2.47;;;2.30;;
69327;SDS011;56472;52.114;5.492;2023-07-24T08:59:43;6.38;;;1.92;;
69327;SDS011;56472;52.114;5.492;2023-07-24T09:02:10;2.47;;;2.13;;
69327;SDS011;56472;52.114;5.492;2023-07-24T09:04:37;2.60;;;2.25;;
69327;SDS011;56472;52.114;5.492;2023-07-24T09:07:04;2.85;;;2.65;;
69327;SDS011;56472;52.114;5.492;2023-07-24T09:09:31;2.50;;;2.30;;
69327;SDS011;56472;52.114;5.492;2023-07-24T09:11:58;2.90;;;2.70;;
69327;SDS011;56472;52.114;5.492;2023-07-24T09:14:27;2.28;;;1.88;;
69327;SDS011;56472;52.114;5.492;2023-07-24T09:19:28;2.25;;;2.15;;
69327;SDS011;56472;52.114;5.492;2023-07-24T09:21:55;4.70;;;2.47;;
69327;SDS011;56472;52.114;5.492;2023-07-24T09:24:22;2.60;;;2.40;;
69327;SDS011;56472;52.114;5.492;2023-07-24T09:26:49;2.40;;;2.20;;
69327;SDS011;56472;52.114;5.492;2023-07-24T09:29:29;2.35;;;2.17;;
69327;SDS011;56472;52.114;5.492;2023-07-24T09:31:58;2.35;;;2.25;;
69327;SDS011;56472;52.114;5.492;2023-07-24T09:34:25;2.60;;;2.40;;
69327;SDS011;56472;52.114;5.492;2023-07-24T09:36:52;2.50;;;2.30;;
69327;SDS011;56472;52.114;5.492;2023-07-24T09:39:25;2.47;;;2.28;;
69327;SDS011;56472;52.114;5.492;2023-07-24T09:42:02;2.80;;;2.60;;
69327;SDS011;56472;52.114;5.492;2023-07-24T09:44:30;3.08;;;2.80;;
69327;SDS011;56472;52.114;5.492;2023-07-24T09:46:58;2.58;;;2.38;;
69327;SDS011;56472;52.114;5.492;2023-07-24T09:49:45;4.82;;;2.88;;
69327;SDS011;56472;52.114;5.492;2023-07-24T09:52:13;2.72;;;2.53;;
69327;SDS011;56472;52.114;5.492;2023-07-24T09:54:46;2.70;;;2.50;;
69327;SDS011;56472;52.114;5.492;2023-07-24T09:57:25;2.35;;;2.20;;
69327;SDS011;56472;52.114;5.492;2023-07-24T09:59:56;2.80;;;2.60;;
69327;SDS011;56472;52.114;5.492;2023-07-24T10:02:23;4.75;;;2.95;;
69327;SDS011;56472;52.114;5.492;2023-07-24T10:04:50;2.95;;;2.75;;
69327;SDS011;56472;52.114;5.492;2023-07-24T10:07:17;3.00;;;2.50;;
69327;SDS011;56472;52.114;5.492;2023-07-24T10:09:48;3.17;;;2.55;;
69327;SDS011;56472;52.114;5.492;2023-07-24T10:12:19;3.10;;;2.90;;
69327;SDS011;56472;52.114;5.492;2023-07-24T10:14:46;3.00;;;2.70;;
69327;SDS011;56472;52.114;5.492;2023-07-24T10:17:13;2.38;;;2.28;;
69327;SDS011;56472;52.114;5.492;2023-07-24T10:19:44;2.80;;;2.58;;
69327;SDS011;56472;52.114;5.492;2023-07-24T10:22:20;3.33;;;2.63;;
69327;SDS011;56472;52.114;5.492;2023-07-24T10:24:49;3.03;;;2.60;;
69327;SDS011;56472;52.114;5.492;2023-07-24T10:27:16;7.03;;;2.70;;
69327;SDS011;56472;52.114;5.492;2023-07-24T10:30:03;2.60;;;2.40;;
69327;SDS011;56472;52.114;5.492;2023-07-24T10:32:48;2.42;;;2.33;;
69327;SDS011;56472;52.114;5.492;2023-07-24T10:35:21;2.33;;;2.22;;
69327;SDS011;56472;52.114;5.492;2023-07-24T10:37:58;2.15;;;2.05;;
69327;SDS011;56472;52.114;5.492;2023-07-24T10:40:26;2.63;;;2.42;;
69327;SDS011;56472;52.114;5.492;2023-07-24T10:43:00;2.38;;;2.28;;
69327;SDS011;56472;52.114;5.492;2023-07-24T10:45:38;2.85;;;2.30;;
69327;SDS011;56472;52.114;5.492;2023-07-24T10:48:04;3.22;;;2.30;;
69327;SDS011;56472;52.114;5.492;2023-07-24T10:50:39;3.42;;;2.33;;
69327;SDS011;56472;52.114;5.492;2023-07-24T10:53:08;2.50;;;2.30;;
69327;SDS011;56472;52.114;5.492;2023-07-24T10:55:36;2.65;;;2.00;;
69327;SDS011;56472;52.114;5.492;2023-07-24T10:58:02;2.25;;;2.05;;
69327;SDS011;56472;52.114;5.492;2023-07-24T11:00:29;2.63;;;2.45;;
69327;SDS011;56472;52.114;5.492;2023-07-24T11:02:56;2.28;;;2.17;;
69327;SDS011;56472;52.114;5.492;2023-07-24T11:05:23;3.03;;;2.25;;
69327;SDS011;56472;52.114;5.492;2023-07-24T11:07:50;3.03;;;2.50;;
69327;SDS011;56472;52.114;5.492;2023-07-24T11:10:18;2.80;;;2.60;;
69327;SDS011;56472;52.114;5.492;2023-07-24T11:12:47;5.20;;;2.60;;
69327;SDS011;56472;52.114;5.492;2023-07-24T11:15:14;2.42;;;2.22;;
69327;SDS011;56472;52.114;5.492;2023-07-24T11:17:41;2.42;;;2.33;;
69327;SDS011;56472;52.114;5.492;2023-07-24T11:20:12;2.40;;;2.20;;
69327;SDS011;56472;52.114;5.492;2023-07-24T11:22:42;2.67;;;2.47;;
69327;SDS011;56472;52.114;5.492;2023-07-24T11:25:10;2.42;;;2.28;;
69327;SDS011;56472;52.114;5.492;2023-07-24T11:27:38;3.42;;;2.30;;
69327;SDS011;56472;52.114;5.492;2023-07-24T11:30:07;2.88;;;2.22;;
69327;SDS011;56472;52.114;5.492;2023-07-24T11:32:35;4.03;;;2.20;;
69327;SDS011;56472;52.114;5.492;2023-07-24T11:35:04;2.80;;;2.60;;
69327;SDS011;56472;52.114;5.492;2023-07-24T11:37:31;2.40;;;2.30;;
69327;SDS011;56472;52.114;5.492;2023-07-24T11:39:58;2.80;;;2.60;;
69327;SDS011;56472;52.114;5.492;2023-07-24T11:42:30;2.25;;;2.08;;
69327;SDS011;56472;52.114;5.492;2023-07-24T11:45:00;2.67;;;2.47;;
69327;SDS011;56472;52.114;5.492;2023-07-24T11:47:28;2.63;;;2.53;;
69327;SDS011;56472;52.114;5.492;2023-07-24T11:49:59;2.60;;;2.40;;
69327;SDS011;56472;52.114;5.492;2023-07-24T11:52:46;3.25;;;2.45;;
69327;SDS011;56472;52.114;5.492;2023-07-24T11:55:18;2.55;;;2.40;;
69327;SDS011;56472;52.114;5.492;2023-07-24T12:00:22;2.75;;;2.55;;
69327;SDS011;56472;52.114;5.492;2023-07-24T12:02:50;2.42;;;2.22;;
69327;SDS011;56472;52.114;5.492;2023-07-24T12:05:17;2.72;;;2.53;;
69327;SDS011;56472;52.114;5.492;2023-07-24T12:07:45;2.90;;;2.58;;
69327;SDS011;56472;52.114;5.492;2023-07-24T12:10:12;2.75;;;2.58;;
69327;SDS011;56472;52.114;5.492;2023-07-24T12:12:50;2.50;;;2.40;;
69327;SDS011;56472;52.114;5.492;2023-07-24T12:15:17;7.78;;;3.28;;
69327;SDS011;56472;52.114;5.492;2023-07-24T12:17:46;4.35;;;2.97;;
69327;SDS011;56472;52.114;5.492;2023-07-24T12:20:13;3.90;;;2.70;;
69327;SDS011;56472;52.114;5.492;2023-07-24T12:22:40;2.92;;;2.72;;
69327;SDS011;56472;52.114;5.492;2023-07-24T12:25:07;4.53;;;3.00;;
69327;SDS011;56472;52.114;5.492;2023-07-24T12:27:34;5.10;;;2.83;;
69327;SDS011;56472;52.114;5.492;2023-07-24T12:30:01;3.90;;;2.95;;
69327;SDS011;56472;52.114;5.492;2023-07-24T12:32:28;3.35;;;3.05;;
69327;SDS011;56472;52.114;5.492;2023-07-24T12:34:55;5.22;;;3.15;;
69327;SDS011;56472;52.114;5.492;2023-07-24T12:37:22;5.25;;;2.80;;
69327;SDS011;56472;52.114;5.492;2023-07-24T12:39:49;4.68;;;2.83;;
69327;SDS011;56472;52.114;5.492;2023-07-24T12:42:16;3.30;;;3.00;;
69327;SDS011;56472;52.114;5.492;2023-07-24T12:44:43;2.85;;;2.63;;
69327;SDS011;56472;52.114;5.492;2023-07-24T12:47:10;3.92;;;3.00;;
69327;SDS011;56472;52.114;5.492;2023-07-24T12:49:38;2.97;;;2.75;;
69327;SDS011;56472;52.114;5.492;2023-07-24T12:52:05;4.78;;;3.10;;
69327;SDS011;56472;52.114;5.492;2023-07-24T12:54:32;6.53;;;3.10;;
69327;SDS011;56472;52.114;5.492;2023-07-24T12:57:19;3.33;;;2.70;;
69327;SDS011;56472;52.114;5.492;2023-07-24T12:59:46;3.55;;;3.25;;
69327;SDS011;56472;52.114;5.492;2023-07-24T13:02:12;6.18;;;3.40;;
69327;SDS011;56472;52.114;5.492;2023-07-24T13:04:40;2.72;;;2.53;;
69327;SDS011;56472;52.114;5.492;2023-07-24T13:07:06;3.40;;;2.70;;
69327;SDS011;56472;52.114;5.492;2023-07-24T13:09:33;2.60;;;2.40;;
69327;SDS011;56472;52.114;5.492;2023-07-24T13:12:00;2.85;;;2.65;;
69327;SDS011;56472;52.114;5.492;2023-07-24T13:14:27;3.85;;;2.42;;
69327;SDS011;56472;52.114;5.492;2023-07-24T13:16:54;2.63;;;2.42;;
69327;SDS011;56472;52.114;5.492;2023-07-24T13:19:21;2.50;;;2.28;;
69327;SDS011;56472;52.114;5.492;2023-07-24T13:21:48;2.40;;;2.20;;
69327;SDS011;56472;52.114;5.492;2023-07-24T13:24:14;2.60;;;2.40;;
69327;SDS011;56472;52.114;5.492;2023-07-24T13:26:41;2.88;;;2.35;;
69327;SDS011;56472;52.114;5.492;2023-07-24T13:29:08;2.30;;;2.20;;
69327;SDS011;56472;52.114;5.492;2023-07-24T13:31:35;2.20;;;2.10;;
69327;SDS011;56472;52.114;5.492;2023-07-24T13:34:03;2.13;;;2.03;;
69327;SDS011;56472;52.114;5.492;2023-07-24T13:36:29;2.58;;;2.25;;
69327;SDS011;56472;52.114;5.492;2023-07-24T13:38:57;2.17;;;1.98;;
69327;SDS011;56472;52.114;5.492;2023-07-24T13:41:24;5.30;;;2.20;;
69327;SDS011;56472;52.114;5.492;2023-07-24T13:43:51;2.50;;;2.20;;
69327;SDS011;56472;52.114;5.492;2023-07-24T13:46:17;2.20;;;2.00;;
69327;SDS011;56472;52.114;5.492;2023-07-24T13:48:44;2.75;;;2.13;;
69327;SDS011;56472;52.114;5.492;2023-07-24T13:51:11;2.03;;;1.83;;
69327;SDS011;56472;52.114;5.492;2023-07-24T13:53:38;2.53;;;2.33;;
69327;SDS011;56472;52.114;5.492;2023-07-24T13:56:05;2.97;;;2.42;;
69327;SDS011;56472;52.114;5.492;2023-07-24T13:58:32;2.42;;;1.92;;
69327;SDS011;56472;52.114;5.492;2023-07-24T14:00:59;2.08;;;1.95;;
69327;SDS011;56472;52.114;5.492;2023-07-24T14:03:26;2.30;;;2.10;;
69327;SDS011;56472;52.114;5.492;2023-07-24T14:05:55;2.08;;;1.83;;
69327;SDS011;56472;52.114;5.492;2023-07-24T14:08:23;2.17;;;2.00;;
69327;SDS011;56472;52.114;5.492;2023-07-24T14:10:50;2.22;;;2.10;;
69327;SDS011;56472;52.114;5.492;2023-07-24T14:13:17;3.70;;;1.80;;
69327;SDS011;56472;52.114;5.492;2023-07-24T14:15:44;1.73;;;1.70;;
69327;SDS011;56472;52.114;5.492;2023-07-24T14:18:11;2.08;;;1.80;;
69327;SDS011;56472;52.114;5.492;2023-07-24T14:20:37;2.00;;;1.80;;
69327;SDS011;56472;52.114;5.492;2023-07-24T14:23:06;2.70;;;2.03;;
69327;SDS011;56472;52.114;5.492;2023-07-24T14:25:36;1.80;;;1.58;;
69327;SDS011;56472;52.114;5.492;2023-07-24T14:28:03;1.80;;;1.70;;
69327;SDS011;56472;52.114;5.492;2023-07-24T14:30:30;2.30;;;2.20;;
69327;SDS011;56472;52.114;5.492;2023-07-24T14:32:57;2.00;;;1.90;;
69327;SDS011;56472;52.114;5.492;2023-07-24T14:35:23;1.77;;;1.70;;
69327;SDS011;56472;52.114;5.492;2023-07-24T14:37:50;2.00;;;1.90;;
69327;SDS011;56472;52.114;5.492;2023-07-24T14:40:18;2.17;;;2.08;;
69327;SDS011;56472;52.114;5.492;2023-07-24T14:42:45;2.05;;;1.95;;
69327;SDS011;56472;52.114;5.492;2023-07-24T14:45:12;2.20;;;2.00;;
69327;SDS011;56472;52.114;5.492;2023-07-24T14:47:39;1.88;;;1.77;;
69327;SDS011;56472;52.114;5.492;2023-07-24T14:50:06;2.13;;;1.98;;
69327;SDS011;56472;52.114;5.492;2023-07-24T14:52:33;1.92;;;1.83;;
69327;SDS011;56472;52.114;5.492;2023-07-24T14:55:00;2.53;;;2.03;;
69327;SDS011;56472;52.114;5.492;2023-07-24T14:57:27;2.30;;;1.90;;